AAL1119 KSAT-KCLT
Flight info
| Callsign | AAL1119 |
|---|---|
| Flight time | N/A |
| Altitude | 37000 |
| Route | SNIDR2 MOLLR KH03G AEX WINAP STNGA BESTT JONZE5 |
| Aircraft | B738/M-SDE2E3FGHIRWXY/LB1 |
Departure
| Time | N/A |
|---|---|
| Airport | San Antonio International Airport (KSAT) |
Arrival
| Time | 2026-05-04 23:18 |
|---|---|
| Airport | Charlotte Douglas International Airport (KCLT) |
| Time | Latitude | Longitude | Altitude | Speed | Heading |
|---|---|---|---|---|---|
| 2026-05-04 22:23 | 33.20071 | -86.88587 | 37030 ft | 528 kts | 73° |
| 2026-05-04 22:23 | 33.20691 | -86.84257 | 37021 ft | 528 kts | 73° |
| 2026-05-04 22:24 | 33.21922 | -86.75609 | 37017 ft | 527 kts | 74° |
| 2026-05-04 22:24 | 33.23137 | -86.67029 | 37017 ft | 527 kts | 74° |
| 2026-05-04 22:25 | 33.24355 | -86.58384 | 37016 ft | 527 kts | 74° |
| 2026-05-04 22:25 | 33.25566 | -86.49753 | 37036 ft | 526 kts | 75° |
| 2026-05-04 22:26 | 33.26772 | -86.41111 | 37040 ft | 526 kts | 75° |
| 2026-05-04 22:26 | 33.27959 | -86.32550 | 37048 ft | 526 kts | 75° |
| 2026-05-04 22:27 | 33.29150 | -86.23923 | 37018 ft | 525 kts | 75° |
| 2026-05-04 22:27 | 33.30333 | -86.15312 | 37032 ft | 525 kts | 75° |
| 2026-05-04 22:28 | 33.31511 | -86.06688 | 37009 ft | 525 kts | 75° |
| 2026-05-04 22:28 | 33.32680 | -85.98081 | 37011 ft | 524 kts | 75° |
| 2026-05-04 22:29 | 33.33843 | -85.89474 | 37028 ft | 524 kts | 75° |
| 2026-05-04 22:29 | 33.35000 | -85.80872 | 37014 ft | 524 kts | 75° |
| 2026-05-04 22:30 | 33.36151 | -85.72262 | 37026 ft | 524 kts | 75° |
| 2026-05-04 22:30 | 33.37288 | -85.63707 | 37020 ft | 524 kts | 76° |
| 2026-05-04 22:31 | 33.38429 | -85.55080 | 37030 ft | 524 kts | 76° |
| 2026-05-04 22:31 | 33.39562 | -85.46468 | 37020 ft | 524 kts | 76° |
| 2026-05-04 22:32 | 33.40691 | -85.37838 | 37037 ft | 524 kts | 77° |
| 2026-05-04 22:32 | 33.41802 | -85.29287 | 37048 ft | 523 kts | 77° |
| 2026-05-04 22:33 | 33.42913 | -85.20695 | 37055 ft | 522 kts | 77° |
| 2026-05-04 22:33 | 33.44017 | -85.12111 | 37062 ft | 521 kts | 77° |
| 2026-05-04 22:34 | 33.45113 | -85.03548 | 37072 ft | 521 kts | 77° |
| 2026-05-04 22:34 | 33.46203 | -84.94975 | 37041 ft | 520 kts | 77° |
| 2026-05-04 22:35 | 33.47280 | -84.86458 | 37039 ft | 519 kts | 77° |
| 2026-05-04 22:35 | 33.48354 | -84.77916 | 37042 ft | 519 kts | 78° |
| 2026-05-04 22:36 | 33.49422 | -84.69374 | 37036 ft | 519 kts | 78° |
| 2026-05-04 22:36 | 33.50486 | -84.60819 | 37042 ft | 518 kts | 78° |
| 2026-05-04 22:37 | 33.51542 | -84.52270 | 37032 ft | 518 kts | 78° |
| 2026-05-04 22:37 | 33.52590 | -84.43743 | 37036 ft | 517 kts | 78° |
| 2026-05-04 22:38 | 33.53632 | -84.35214 | 37066 ft | 517 kts | 78° |
| 2026-05-04 22:38 | 33.54668 | -84.26684 | 37064 ft | 517 kts | 79° |
| 2026-05-04 22:39 | 33.55698 | -84.18157 | 37064 ft | 516 kts | 79° |
| 2026-05-04 22:39 | 33.56716 | -84.09664 | 37034 ft | 514 kts | 79° |
| 2026-05-04 22:40 | 33.57730 | -84.01166 | 37038 ft | 513 kts | 79° |
| 2026-05-04 22:40 | 33.58729 | -83.92749 | 37036 ft | 512 kts | 79° |
| 2026-05-04 22:41 | 33.60115 | -83.84387 | 37038 ft | 508 kts | 70° |
| 2026-05-04 22:41 | 33.62266 | -83.76329 | 37039 ft | 507 kts | 69° |
| 2026-05-04 22:42 | 33.64362 | -83.68287 | 37033 ft | 508 kts | 70° |
| 2026-05-04 22:42 | 33.66353 | -83.60129 | 37035 ft | 508 kts | 71° |
| 2026-05-04 22:42 | 33.67557 | -83.56161 | 37015 ft | 503 kts | 59° |
| 2026-05-04 22:43 | 33.69257 | -83.52517 | 37056 ft | 499 kts | 54° |
| 2026-05-04 22:43 | 33.72927 | -83.45414 | 37039 ft | 500 kts | 54° |
| 2026-05-04 22:44 | 33.76528 | -83.38249 | 37029 ft | 502 kts | 55° |
| 2026-05-04 22:44 | 33.80042 | -83.30993 | 37031 ft | 503 kts | 56° |
| 2026-05-04 22:45 | 33.83570 | -83.23693 | 37031 ft | 503 kts | 55° |
| 2026-05-04 22:45 | 33.89237 | -83.13150 | 37012 ft | 502 kts | 52° |
| 2026-05-04 22:46 | 33.93123 | -83.06147 | 37030 ft | 502 kts | 52° |
| 2026-05-04 22:46 | 33.96964 | -82.99119 | 37037 ft | 503 kts | 52° |
| 2026-05-04 22:47 | 34.00788 | -82.92055 | 37039 ft | 503 kts | 53° |
| 2026-05-04 22:47 | 34.04603 | -82.84988 | 37040 ft | 503 kts | 53° |
| 2026-05-04 22:48 | 34.06498 | -82.81470 | 36808 ft | 498 kts | 53° |
| 2026-05-04 22:48 | 34.08370 | -82.77996 | 35959 ft | 500 kts | 53° |
| 2026-05-04 22:48 | 34.10260 | -82.74487 | 35376 ft | 497 kts | 53° |
| 2026-05-04 22:48 | 34.12138 | -82.70997 | 34697 ft | 496 kts | 54° |
| 2026-05-04 22:49 | 34.14017 | -82.67502 | 34005 ft | 496 kts | 54° |
| 2026-05-04 22:49 | 34.15902 | -82.63993 | 33190 ft | 497 kts | 54° |
| 2026-05-04 22:49 | 34.17777 | -82.60496 | 32387 ft | 497 kts | 54° |
| 2026-05-04 22:49 | 34.19659 | -82.56985 | 31681 ft | 496 kts | 54° |
| 2026-05-04 22:50 | 34.21526 | -82.53495 | 31191 ft | 490 kts | 54° |
| 2026-05-04 22:50 | 34.23365 | -82.50055 | 30632 ft | 486 kts | 54° |
| 2026-05-04 22:50 | 34.25164 | -82.46688 | 30365 ft | 477 kts | 54° |
| 2026-05-04 22:50 | 34.26948 | -82.43344 | 30167 ft | 466 kts | 54° |
| 2026-05-04 22:51 | 34.28682 | -82.40091 | 29923 ft | 456 kts | 54° |
| 2026-05-04 22:51 | 34.30389 | -82.36887 | 29499 ft | 450 kts | 54° |
| 2026-05-04 22:51 | 34.32075 | -82.33719 | 29052 ft | 446 kts | 54° |
| 2026-05-04 22:51 | 34.33750 | -82.30568 | 28597 ft | 442 kts | 54° |
| 2026-05-04 22:52 | 34.35405 | -82.27451 | 28295 ft | 435 kts | 54° |
| 2026-05-04 22:52 | 34.37023 | -82.24399 | 28017 ft | 428 kts | 54° |
| 2026-05-04 22:52 | 34.38618 | -82.21392 | 27784 ft | 433 kts | 54° |
| 2026-05-04 22:52 | 34.40276 | -82.18266 | 27524 ft | 438 kts | 54° |
| 2026-05-04 22:53 | 34.41897 | -82.15206 | 27266 ft | 437 kts | 54° |
| 2026-05-04 22:53 | 34.43524 | -82.12126 | 27003 ft | 433 kts | 54° |
| 2026-05-04 22:53 | 34.45147 | -82.09052 | 26743 ft | 430 kts | 54° |
| 2026-05-04 22:53 | 34.46752 | -82.06009 | 26486 ft | 428 kts | 54° |
| 2026-05-04 22:54 | 34.48352 | -82.02975 | 26254 ft | 425 kts | 54° |
| 2026-05-04 22:54 | 34.49943 | -81.99956 | 26014 ft | 423 kts | 54° |
| 2026-05-04 22:54 | 34.51520 | -81.96960 | 25770 ft | 421 kts | 54° |
| 2026-05-04 22:54 | 34.53093 | -81.93969 | 25520 ft | 420 kts | 54° |
| 2026-05-04 22:55 | 34.54663 | -81.90985 | 25282 ft | 418 kts | 54° |
| 2026-05-04 22:55 | 34.56233 | -81.88001 | 25040 ft | 417 kts | 54° |
| 2026-05-04 22:55 | 34.57267 | -81.86034 | 24880 ft | 416 kts | 54° |
| 2026-05-04 22:55 | 34.59329 | -81.82117 | 24565 ft | 415 kts | 54° |
| 2026-05-04 22:56 | 34.60379 | -81.80124 | 24410 ft | 413 kts | 54° |
| 2026-05-04 22:56 | 34.62412 | -81.76262 | 23971 ft | 408 kts | 54° |
| 2026-05-04 22:56 | 34.63936 | -81.73367 | 23543 ft | 405 kts | 54° |
| 2026-05-04 22:56 | 34.65453 | -81.70486 | 23010 ft | 404 kts | 54° |
| 2026-05-04 22:57 | 34.66475 | -81.68546 | 22684 ft | 402 kts | 54° |
| 2026-05-04 22:57 | 34.67977 | -81.65698 | 22267 ft | 398 kts | 54° |
| 2026-05-04 22:57 | 34.69445 | -81.62911 | 21850 ft | 395 kts | 54° |
| 2026-05-04 22:57 | 34.70919 | -81.60105 | 21440 ft | 392 kts | 54° |
| 2026-05-04 22:58 | 34.72376 | -81.57319 | 20999 ft | 389 kts | 54° |
| 2026-05-04 22:58 | 34.73813 | -81.54559 | 20786 ft | 378 kts | 54° |
| 2026-05-04 22:58 | 34.75184 | -81.51913 | 20533 ft | 364 kts | 54° |
| 2026-05-04 22:58 | 34.76518 | -81.49329 | 20187 ft | 359 kts | 54° |
| 2026-05-04 22:59 | 34.77844 | -81.46760 | 19867 ft | 356 kts | 54° |
| 2026-05-04 22:59 | 34.79156 | -81.44221 | 19580 ft | 353 kts | 54° |
| 2026-05-04 22:59 | 34.80461 | -81.41697 | 19260 ft | 350 kts | 54° |
| 2026-05-04 22:59 | 34.81756 | -81.39195 | 18936 ft | 348 kts | 54° |
| 2026-05-04 23:00 | 34.83034 | -81.36746 | 18613 ft | 345 kts | 52° |
| 2026-05-04 23:00 | 34.84720 | -81.34745 | 18216 ft | 337 kts | 29° |
| 2026-05-04 23:00 | 34.86667 | -81.33193 | 17938 ft | 332 kts | 30° |
| 2026-05-04 23:00 | 34.88562 | -81.31632 | 17505 ft | 326 kts | 30° |
| 2026-05-04 23:01 | 34.90460 | -81.30071 | 16947 ft | 334 kts | 30° |
| 2026-05-04 23:01 | 34.92351 | -81.28528 | 16566 ft | 324 kts | 30° |
| 2026-05-04 23:01 | 34.94230 | -81.27015 | 16002 ft | 322 kts | 30° |
| 2026-05-04 23:01 | 34.95977 | -81.25276 | 15376 ft | 326 kts | 41° |
| 2026-05-04 23:02 | 34.97512 | -81.23291 | 14849 ft | 325 kts | 45° |
| 2026-05-04 23:02 | 34.99014 | -81.21247 | 14333 ft | 322 kts | 45° |
| 2026-05-04 23:02 | 35.00512 | -81.19228 | 13828 ft | 320 kts | 44° |
| 2026-05-04 23:02 | 35.02019 | -81.17241 | 13286 ft | 317 kts | 44° |
| 2026-05-04 23:03 | 35.03523 | -81.15287 | 12749 ft | 314 kts | 44° |
| 2026-05-04 23:03 | 35.05020 | -81.13352 | 12201 ft | 312 kts | 44° |
| 2026-05-04 23:03 | 35.06503 | -81.11434 | 11730 ft | 309 kts | 44° |
| 2026-05-04 23:03 | 35.07974 | -81.09531 | 11178 ft | 310 kts | 44° |
| 2026-05-04 23:04 | 35.09483 | -81.07620 | 10832 ft | 311 kts | 39° |
| 2026-05-04 23:04 | 35.11288 | -81.06365 | 10645 ft | 296 kts | 12° |
| 2026-05-04 23:04 | 35.13239 | -81.06039 | 10546 ft | 274 kts | 355° |
| 2026-05-04 23:04 | 35.15084 | -81.06173 | 10451 ft | 260 kts | 351° |
| 2026-05-04 23:05 | 35.16921 | -81.06364 | 10435 ft | 261 kts | 351° |
| 2026-05-04 23:05 | 35.18708 | -81.06545 | 10364 ft | 252 kts | 351° |
| 2026-05-04 23:05 | 35.20544 | -81.06732 | 10393 ft | 279 kts | 351° |
| 2026-05-04 23:05 | 35.22499 | -81.06922 | 10382 ft | 278 kts | 351° |
| 2026-05-04 23:06 | 35.24371 | -81.07097 | 10290 ft | 266 kts | 351° |
| 2026-05-04 23:06 | 35.26190 | -81.07263 | 10216 ft | 258 kts | 351° |
| 2026-05-04 23:06 | 35.27954 | -81.07422 | 10150 ft | 250 kts | 351° |
| 2026-05-04 23:06 | 35.29683 | -81.07575 | 10007 ft | 246 kts | 351° |
| 2026-05-04 23:07 | 35.31386 | -81.07723 | 9753 ft | 245 kts | 351° |
| 2026-05-04 23:07 | 35.33085 | -81.07872 | 9478 ft | 245 kts | 351° |
| 2026-05-04 23:07 | 35.34782 | -81.08026 | 9228 ft | 243 kts | 350° |
| 2026-05-04 23:07 | 35.36458 | -81.08289 | 8950 ft | 242 kts | 347° |
| 2026-05-04 23:08 | 35.38117 | -81.08609 | 8703 ft | 241 kts | 346° |
| 2026-05-04 23:08 | 35.39766 | -81.08943 | 8442 ft | 240 kts | 346° |
| 2026-05-04 23:08 | 35.41410 | -81.09281 | 8203 ft | 239 kts | 346° |
| 2026-05-04 23:08 | 35.43081 | -81.09717 | 8158 ft | 252 kts | 342° |
| 2026-05-04 23:09 | 35.44780 | -81.10035 | 8049 ft | 242 kts | 351° |
| 2026-05-04 23:09 | 35.46419 | -81.10239 | 7722 ft | 239 kts | 349° |
| 2026-05-04 23:09 | 35.48056 | -81.10506 | 7387 ft | 236 kts | 348° |
| 2026-05-04 23:09 | 35.49693 | -81.10762 | 7009 ft | 237 kts | 349° |
| 2026-05-04 23:10 | 35.51338 | -81.10833 | 6645 ft | 240 kts | 9° |
| 2026-05-04 23:10 | 35.52829 | -81.09938 | 6282 ft | 243 kts | 42° |
| 2026-05-04 23:10 | 35.53738 | -81.08217 | 5866 ft | 243 kts | 74° |
| 2026-05-04 23:10 | 35.54073 | -81.06196 | 5513 ft | 240 kts | 89° |
| 2026-05-04 23:11 | 35.53784 | -81.04241 | 5145 ft | 231 kts | 122° |
| 2026-05-04 23:11 | 35.52787 | -81.02767 | 4870 ft | 222 kts | 139° |
| 2026-05-04 23:11 | 35.51648 | -81.01483 | 4666 ft | 230 kts | 142° |
| 2026-05-04 23:11 | 35.50387 | -81.00308 | 4645 ft | 225 kts | 152° |
| 2026-05-04 23:12 | 35.49035 | -80.99488 | 4542 ft | 210 kts | 161° |
| 2026-05-04 23:12 | 35.47667 | -80.98920 | 4314 ft | 203 kts | 165° |
| 2026-05-04 23:12 | 35.46334 | -80.98428 | 4144 ft | 200 kts | 166° |
| 2026-05-04 23:12 | 35.44958 | -80.98054 | 3983 ft | 203 kts | 174° |
| 2026-05-04 23:13 | 35.43555 | -80.97962 | 3998 ft | 202 kts | 183° |
| 2026-05-04 23:13 | 35.42191 | -80.98138 | 4005 ft | 191 kts | 188° |
| 2026-05-04 23:13 | 35.40892 | -80.98150 | 3887 ft | 184 kts | 175° |
| 2026-05-04 23:13 | 35.39638 | -80.97911 | 3693 ft | 180 kts | 172° |
| 2026-05-04 23:14 | 35.38430 | -80.97538 | 3445 ft | 179 kts | 166° |
| 2026-05-04 23:14 | 35.37249 | -80.97101 | 3230 ft | 172 kts | 166° |
| 2026-05-04 23:14 | 35.36152 | -80.96703 | 3017 ft | 160 kts | 169° |
| 2026-05-04 23:14 | 35.35111 | -80.96453 | 2844 ft | 146 kts | 174° |
| 2026-05-04 23:15 | 35.34119 | -80.96315 | 2775 ft | 142 kts | 177° |
| 2026-05-04 23:15 | 35.33124 | -80.96215 | 2724 ft | 143 kts | 178° |
| 2026-05-04 23:15 | 35.32137 | -80.96130 | 2592 ft | 144 kts | 179° |
| 2026-05-04 23:15 | 35.31131 | -80.96046 | 2401 ft | 146 kts | 179° |
| 2026-05-04 23:16 | 35.30131 | -80.95958 | 2200 ft | 142 kts | 178° |
| 2026-05-04 23:16 | 35.29152 | -80.95870 | 2037 ft | 141 kts | 178° |
| 2026-05-04 23:16 | 35.28179 | -80.95786 | 1815 ft | 142 kts | 178° |
| 2026-05-04 23:16 | 35.27211 | -80.95696 | 1619 ft | 138 kts | 178° |
| 2026-05-04 23:17 | 35.26220 | -80.95615 | 1416 ft | 147 kts | 177° |
| 2026-05-04 23:17 | 35.25204 | -80.95523 | 1252 ft | 144 kts | 179° |
| 2026-05-04 23:17 | 35.24228 | -80.95451 | 1039 ft | 142 kts | 178° |
| 2026-05-04 23:17 | 35.23255 | -80.95362 | 885 ft | 138 kts | 178° |
| 2026-05-04 23:18 | 35.22304 | -80.95279 | 741 ft | 131 kts | 177° |
| 2026-05-04 23:18 | 35.21608 | -80.95221 | 738 ft | 72 kts | 176° |
| 2026-05-04 23:18 | 35.21200 | -80.95185 | 735 ft | 23 kts | 169° |